sensor_id;sensor_type;location;lat;lon;timestamp;P1;durP1;ratioP1;P2;durP2;ratioP2
46365;SDS011;32073;49.166;8.076;2023-06-14T00:02:15;3.47;;;2.47;;
46365;SDS011;32073;49.166;8.076;2023-06-14T00:06:15;4.53;;;2.42;;
46365;SDS011;32073;49.166;8.076;2023-06-14T00:10:17;3.13;;;2.30;;
46365;SDS011;32073;49.166;8.076;2023-06-14T00:14:17;4.53;;;2.55;;
46365;SDS011;32073;49.166;8.076;2023-06-14T00:18:18;3.28;;;2.55;;
46365;SDS011;32073;49.166;8.076;2023-06-14T00:22:19;4.03;;;2.70;;
46365;SDS011;32073;49.166;8.076;2023-06-14T00:26:20;3.97;;;2.60;;
46365;SDS011;32073;49.166;8.076;2023-06-14T00:30:20;2.97;;;2.45;;
46365;SDS011;32073;49.166;8.076;2023-06-14T00:34:21;3.42;;;2.67;;
46365;SDS011;32073;49.166;8.076;2023-06-14T00:38:21;4.03;;;3.10;;
46365;SDS011;32073;49.166;8.076;2023-06-14T00:42:23;3.88;;;2.65;;
46365;SDS011;32073;49.166;8.076;2023-06-14T00:46:27;3.45;;;2.65;;
46365;SDS011;32073;49.166;8.076;2023-06-14T00:50:28;3.20;;;2.40;;
46365;SDS011;32073;49.166;8.076;2023-06-14T00:54:32;2.90;;;2.50;;
46365;SDS011;32073;49.166;8.076;2023-06-14T00:58:32;3.00;;;2.42;;
46365;SDS011;32073;49.166;8.076;2023-06-14T01:02:33;5.88;;;2.53;;
46365;SDS011;32073;49.166;8.076;2023-06-14T01:11:18;3.78;;;2.83;;
46365;SDS011;32073;49.166;8.076;2023-06-14T01:15:27;5.65;;;2.20;;
46365;SDS011;32073;49.166;8.076;2023-06-14T01:19:32;3.72;;;2.47;;
46365;SDS011;32073;49.166;8.076;2023-06-14T01:23:34;3.22;;;2.30;;
46365;SDS011;32073;49.166;8.076;2023-06-14T01:27:34;3.50;;;2.60;;
46365;SDS011;32073;49.166;8.076;2023-06-14T01:31:35;3.63;;;1.85;;
46365;SDS011;32073;49.166;8.076;2023-06-14T01:35:42;3.95;;;1.92;;
46365;SDS011;32073;49.166;8.076;2023-06-14T01:39:45;3.72;;;2.20;;
46365;SDS011;32073;49.166;8.076;2023-06-14T01:43:47;2.75;;;2.13;;
46365;SDS011;32073;49.166;8.076;2023-06-14T01:47:50;4.07;;;2.70;;
46365;SDS011;32073;49.166;8.076;2023-06-14T01:51:52;4.50;;;2.42;;
46365;SDS011;32073;49.166;8.076;2023-06-14T01:55:52;3.28;;;2.25;;
46365;SDS011;32073;49.166;8.076;2023-06-14T01:59:54;2.40;;;2.20;;
46365;SDS011;32073;49.166;8.076;2023-06-14T02:03:54;2.42;;;2.13;;
46365;SDS011;32073;49.166;8.076;2023-06-14T02:07:55;2.90;;;2.33;;
46365;SDS011;32073;49.166;8.076;2023-06-14T02:11:56;3.70;;;2.33;;
46365;SDS011;32073;49.166;8.076;2023-06-14T02:15:56;4.00;;;2.38;;
46365;SDS011;32073;49.166;8.076;2023-06-14T02:19:57;4.18;;;2.20;;
46365;SDS011;32073;49.166;8.076;2023-06-14T02:23:58;2.60;;;2.38;;
46365;SDS011;32073;49.166;8.076;2023-06-14T02:27:58;3.03;;;2.30;;
46365;SDS011;32073;49.166;8.076;2023-06-14T02:31:59;2.47;;;2.00;;
46365;SDS011;32073;49.166;8.076;2023-06-14T02:36:00;3.20;;;1.85;;
46365;SDS011;32073;49.166;8.076;2023-06-14T02:40:02;3.53;;;2.10;;
46365;SDS011;32073;49.166;8.076;2023-06-14T02:44:06;4.38;;;2.35;;
46365;SDS011;32073;49.166;8.076;2023-06-14T02:48:06;3.45;;;2.30;;
46365;SDS011;32073;49.166;8.076;2023-06-14T02:52:07;3.80;;;2.30;;
46365;SDS011;32073;49.166;8.076;2023-06-14T02:56:10;2.95;;;2.10;;
46365;SDS011;32073;49.166;8.076;2023-06-14T03:00:11;3.17;;;1.92;;
46365;SDS011;32073;49.166;8.076;2023-06-14T03:04:13;2.72;;;1.90;;
46365;SDS011;32073;49.166;8.076;2023-06-14T03:08:14;2.72;;;2.40;;
46365;SDS011;32073;49.166;8.076;2023-06-14T03:12:16;4.63;;;2.45;;
46365;SDS011;32073;49.166;8.076;2023-06-14T03:16:17;5.05;;;2.60;;
46365;SDS011;32073;49.166;8.076;2023-06-14T03:20:24;2.67;;;2.28;;
46365;SDS011;32073;49.166;8.076;2023-06-14T03:24:29;3.38;;;2.45;;
46365;SDS011;32073;49.166;8.076;2023-06-14T03:28:36;4.63;;;2.70;;
46365;SDS011;32073;49.166;8.076;2023-06-14T03:32:36;4.30;;;2.78;;
46365;SDS011;32073;49.166;8.076;2023-06-14T03:36:37;3.55;;;2.40;;
46365;SDS011;32073;49.166;8.076;2023-06-14T03:40:38;4.78;;;2.65;;
46365;SDS011;32073;49.166;8.076;2023-06-14T03:44:38;3.58;;;2.47;;
46365;SDS011;32073;49.166;8.076;2023-06-14T03:48:39;4.55;;;2.50;;
46365;SDS011;32073;49.166;8.076;2023-06-14T03:52:40;2.63;;;2.33;;
46365;SDS011;32073;49.166;8.076;2023-06-14T03:56:42;2.65;;;2.30;;
46365;SDS011;32073;49.166;8.076;2023-06-14T04:00:43;3.58;;;2.40;;
46365;SDS011;32073;49.166;8.076;2023-06-14T04:04:45;2.88;;;1.88;;
46365;SDS011;32073;49.166;8.076;2023-06-14T04:08:45;3.75;;;2.20;;
46365;SDS011;32073;49.166;8.076;2023-06-14T04:12:46;3.45;;;2.60;;
46365;SDS011;32073;49.166;8.076;2023-06-14T04:16:47;4.30;;;2.40;;
46365;SDS011;32073;49.166;8.076;2023-06-14T04:20:49;4.30;;;2.42;;
46365;SDS011;32073;49.166;8.076;2023-06-14T04:24:50;3.58;;;2.58;;
46365;SDS011;32073;49.166;8.076;2023-06-14T04:28:52;2.67;;;2.33;;
46365;SDS011;32073;49.166;8.076;2023-06-14T04:32:56;2.83;;;2.30;;
46365;SDS011;32073;49.166;8.076;2023-06-14T04:36:57;4.20;;;2.60;;
46365;SDS011;32073;49.166;8.076;2023-06-14T04:40:59;3.88;;;2.53;;
46365;SDS011;32073;49.166;8.076;2023-06-14T04:45:01;4.10;;;2.40;;
46365;SDS011;32073;49.166;8.076;2023-06-14T04:49:02;8.02;;;2.65;;
46365;SDS011;32073;49.166;8.076;2023-06-14T04:53:03;4.55;;;2.65;;
46365;SDS011;32073;49.166;8.076;2023-06-14T04:57:04;3.92;;;2.80;;
46365;SDS011;32073;49.166;8.076;2023-06-14T05:01:05;4.25;;;3.00;;
46365;SDS011;32073;49.166;8.076;2023-06-14T05:05:09;3.72;;;2.35;;
46365;SDS011;32073;49.166;8.076;2023-06-14T05:09:11;3.15;;;2.70;;
46365;SDS011;32073;49.166;8.076;2023-06-14T05:13:14;3.72;;;2.83;;
46365;SDS011;32073;49.166;8.076;2023-06-14T05:17:14;3.58;;;2.90;;
46365;SDS011;32073;49.166;8.076;2023-06-14T05:21:17;6.28;;;2.80;;
46365;SDS011;32073;49.166;8.076;2023-06-14T05:25:18;4.05;;;2.80;;
46365;SDS011;32073;49.166;8.076;2023-06-14T05:29:22;10.73;;;3.00;;
46365;SDS011;32073;49.166;8.076;2023-06-14T05:33:23;3.40;;;2.70;;
46365;SDS011;32073;49.166;8.076;2023-06-14T05:37:26;4.35;;;2.67;;
46365;SDS011;32073;49.166;8.076;2023-06-14T05:41:27;3.75;;;2.90;;
46365;SDS011;32073;49.166;8.076;2023-06-14T05:45:47;5.35;;;3.30;;
46365;SDS011;32073;49.166;8.076;2023-06-14T05:51:04;9.15;;;3.05;;
46365;SDS011;32073;49.166;8.076;2023-06-14T06:00:20;3.25;;;2.95;;
46365;SDS011;32073;49.166;8.076;2023-06-14T06:04:53;3.28;;;2.80;;
46365;SDS011;32073;49.166;8.076;2023-06-14T06:08:54;3.65;;;3.28;;
46365;SDS011;32073;49.166;8.076;2023-06-14T06:12:54;4.00;;;3.13;;
46365;SDS011;32073;49.166;8.076;2023-06-14T06:16:55;6.10;;;2.90;;
46365;SDS011;32073;49.166;8.076;2023-06-14T06:20:56;4.15;;;3.03;;
46365;SDS011;32073;49.166;8.076;2023-06-14T06:24:57;3.65;;;2.75;;
46365;SDS011;32073;49.166;8.076;2023-06-14T06:28:58;4.82;;;3.03;;
46365;SDS011;32073;49.166;8.076;2023-06-14T06:32:59;5.65;;;3.40;;
46365;SDS011;32073;49.166;8.076;2023-06-14T06:36:59;7.65;;;3.10;;
46365;SDS011;32073;49.166;8.076;2023-06-14T06:41:01;3.63;;;3.08;;
46365;SDS011;32073;49.166;8.076;2023-06-14T06:45:01;4.30;;;2.95;;
46365;SDS011;32073;49.166;8.076;2023-06-14T06:49:02;4.65;;;3.38;;
46365;SDS011;32073;49.166;8.076;2023-06-14T06:53:03;5.07;;;3.10;;
46365;SDS011;32073;49.166;8.076;2023-06-14T06:57:05;8.45;;;3.13;;
46365;SDS011;32073;49.166;8.076;2023-06-14T07:01:06;5.25;;;3.22;;
46365;SDS011;32073;49.166;8.076;2023-06-14T07:05:09;6.65;;;3.72;;
46365;SDS011;32073;49.166;8.076;2023-06-14T07:09:09;5.53;;;3.10;;
46365;SDS011;32073;49.166;8.076;2023-06-14T07:13:14;4.07;;;3.00;;
46365;SDS011;32073;49.166;8.076;2023-06-14T07:17:15;5.15;;;3.03;;
46365;SDS011;32073;49.166;8.076;2023-06-14T07:21:16;4.88;;;3.20;;
46365;SDS011;32073;49.166;8.076;2023-06-14T07:25:16;4.45;;;2.83;;
46365;SDS011;32073;49.166;8.076;2023-06-14T07:29:20;11.02;;;3.50;;
46365;SDS011;32073;49.166;8.076;2023-06-14T07:33:21;4.18;;;2.80;;
46365;SDS011;32073;49.166;8.076;2023-06-14T07:37:21;5.07;;;3.35;;
46365;SDS011;32073;49.166;8.076;2023-06-14T07:41:22;5.43;;;3.20;;
46365;SDS011;32073;49.166;8.076;2023-06-14T07:45:23;4.47;;;3.13;;
46365;SDS011;32073;49.166;8.076;2023-06-14T07:49:24;3.35;;;2.85;;
46365;SDS011;32073;49.166;8.076;2023-06-14T07:53:25;5.15;;;3.03;;
46365;SDS011;32073;49.166;8.076;2023-06-14T07:57:25;4.93;;;3.40;;
46365;SDS011;32073;49.166;8.076;2023-06-14T08:01:26;5.40;;;3.28;;
46365;SDS011;32073;49.166;8.076;2023-06-14T08:05:28;8.98;;;3.38;;
46365;SDS011;32073;49.166;8.076;2023-06-14T08:09:29;5.63;;;3.42;;
46365;SDS011;32073;49.166;8.076;2023-06-14T08:13:29;7.47;;;2.95;;
46365;SDS011;32073;49.166;8.076;2023-06-14T08:17:30;5.25;;;3.45;;
46365;SDS011;32073;49.166;8.076;2023-06-14T08:21:31;5.03;;;2.97;;
46365;SDS011;32073;49.166;8.076;2023-06-14T08:25:33;6.68;;;3.47;;
46365;SDS011;32073;49.166;8.076;2023-06-14T08:29:34;8.25;;;3.63;;
46365;SDS011;32073;49.166;8.076;2023-06-14T08:33:34;8.38;;;3.65;;
46365;SDS011;32073;49.166;8.076;2023-06-14T08:37:39;4.68;;;3.25;;
46365;SDS011;32073;49.166;8.076;2023-06-14T08:41:41;4.63;;;3.45;;
46365;SDS011;32073;49.166;8.076;2023-06-14T08:45:46;6.68;;;3.38;;
46365;SDS011;32073;49.166;8.076;2023-06-14T08:49:54;5.53;;;3.50;;
46365;SDS011;32073;49.166;8.076;2023-06-14T08:53:57;7.85;;;4.15;;
46365;SDS011;32073;49.166;8.076;2023-06-14T08:57:57;6.07;;;3.42;;
46365;SDS011;32073;49.166;8.076;2023-06-14T09:01:58;5.28;;;3.25;;
46365;SDS011;32073;49.166;8.076;2023-06-14T09:06:00;5.18;;;3.25;;
46365;SDS011;32073;49.166;8.076;2023-06-14T09:10:05;9.48;;;3.17;;
46365;SDS011;32073;49.166;8.076;2023-06-14T09:14:13;5.65;;;3.30;;
46365;SDS011;32073;49.166;8.076;2023-06-14T09:18:14;3.40;;;3.10;;
46365;SDS011;32073;49.166;8.076;2023-06-14T09:22:16;8.18;;;3.83;;
46365;SDS011;32073;49.166;8.076;2023-06-14T09:26:17;4.75;;;3.13;;
46365;SDS011;32073;49.166;8.076;2023-06-14T09:30:23;4.38;;;3.53;;
46365;SDS011;32073;49.166;8.076;2023-06-14T09:34:23;5.55;;;3.28;;
46365;SDS011;32073;49.166;8.076;2023-06-14T09:38:24;8.73;;;3.65;;
46365;SDS011;32073;49.166;8.076;2023-06-14T09:42:25;6.57;;;3.00;;
46365;SDS011;32073;49.166;8.076;2023-06-14T09:46:27;6.40;;;2.80;;
46365;SDS011;32073;49.166;8.076;2023-06-14T09:50:29;6.20;;;2.72;;
46365;SDS011;32073;49.166;8.076;2023-06-14T09:54:30;6.82;;;2.78;;
46365;SDS011;32073;49.166;8.076;2023-06-14T09:58:32;3.40;;;2.60;;
46365;SDS011;32073;49.166;8.076;2023-06-14T10:02:37;5.80;;;2.70;;
46365;SDS011;32073;49.166;8.076;2023-06-14T10:06:43;5.53;;;3.00;;
46365;SDS011;32073;49.166;8.076;2023-06-14T10:10:45;7.70;;;2.70;;
46365;SDS011;32073;49.166;8.076;2023-06-14T10:14:49;4.40;;;2.85;;
46365;SDS011;32073;49.166;8.076;2023-06-14T10:19:01;6.00;;;3.00;;
46365;SDS011;32073;49.166;8.076;2023-06-14T10:23:22;2.70;;;2.40;;
46365;SDS011;32073;49.166;8.076;2023-06-14T10:27:24;3.30;;;2.28;;
46365;SDS011;32073;49.166;8.076;2023-06-14T10:31:41;3.35;;;2.60;;
46365;SDS011;32073;49.166;8.076;2023-06-14T10:35:44;6.35;;;2.50;;
46365;SDS011;32073;49.166;8.076;2023-06-14T10:39:45;4.22;;;2.22;;
46365;SDS011;32073;49.166;8.076;2023-06-14T10:43:46;4.90;;;2.28;;
46365;SDS011;32073;49.166;8.076;2023-06-14T10:47:48;7.07;;;2.28;;
46365;SDS011;32073;49.166;8.076;2023-06-14T10:51:52;2.97;;;2.28;;
46365;SDS011;32073;49.166;8.076;2023-06-14T10:55:53;4.35;;;2.67;;
46365;SDS011;32073;49.166;8.076;2023-06-14T10:59:56;7.53;;;3.08;;
46365;SDS011;32073;49.166;8.076;2023-06-14T11:04:01;3.50;;;2.55;;
46365;SDS011;32073;49.166;8.076;2023-06-14T11:12:40;4.57;;;2.45;;
46365;SDS011;32073;49.166;8.076;2023-06-14T11:16:49;2.80;;;2.13;;
46365;SDS011;32073;49.166;8.076;2023-06-14T11:20:50;2.53;;;2.15;;
46365;SDS011;32073;49.166;8.076;2023-06-14T11:24:51;4.35;;;2.22;;
46365;SDS011;32073;49.166;8.076;2023-06-14T11:28:54;4.05;;;2.30;;
46365;SDS011;32073;49.166;8.076;2023-06-14T11:32:57;3.65;;;2.20;;
46365;SDS011;32073;49.166;8.076;2023-06-14T11:36:58;2.20;;;1.98;;
46365;SDS011;32073;49.166;8.076;2023-06-14T11:41:00;3.53;;;2.10;;
46365;SDS011;32073;49.166;8.076;2023-06-14T11:45:01;3.30;;;1.92;;
46365;SDS011;32073;49.166;8.076;2023-06-14T11:49:06;3.83;;;1.90;;
46365;SDS011;32073;49.166;8.076;2023-06-14T11:53:08;3.50;;;2.03;;
46365;SDS011;32073;49.166;8.076;2023-06-14T11:57:10;4.22;;;2.25;;
46365;SDS011;32073;49.166;8.076;2023-06-14T12:01:14;2.30;;;1.60;;
46365;SDS011;32073;49.166;8.076;2023-06-14T12:05:20;6.57;;;2.20;;
46365;SDS011;32073;49.166;8.076;2023-06-14T12:09:21;4.63;;;1.90;;
46365;SDS011;32073;49.166;8.076;2023-06-14T12:13:24;2.80;;;1.63;;
46365;SDS011;32073;49.166;8.076;2023-06-14T12:17:25;3.85;;;1.60;;
46365;SDS011;32073;49.166;8.076;2023-06-14T12:21:30;2.30;;;1.98;;
46365;SDS011;32073;49.166;8.076;2023-06-14T12:25:34;3.42;;;1.92;;
46365;SDS011;32073;49.166;8.076;2023-06-14T12:29:36;3.15;;;1.80;;
46365;SDS011;32073;49.166;8.076;2023-06-14T12:33:37;3.28;;;1.90;;
46365;SDS011;32073;49.166;8.076;2023-06-14T12:37:39;3.08;;;1.60;;
46365;SDS011;32073;49.166;8.076;2023-06-14T12:41:40;2.22;;;1.85;;
46365;SDS011;32073;49.166;8.076;2023-06-14T12:45:41;1.85;;;1.67;;
46365;SDS011;32073;49.166;8.076;2023-06-14T12:49:42;2.38;;;1.60;;
46365;SDS011;32073;49.166;8.076;2023-06-14T12:53:46;6.22;;;1.88;;
46365;SDS011;32073;49.166;8.076;2023-06-14T12:57:46;2.53;;;2.15;;
46365;SDS011;32073;49.166;8.076;2023-06-14T13:01:49;2.50;;;2.10;;
46365;SDS011;32073;49.166;8.076;2023-06-14T13:05:50;3.45;;;1.95;;
46365;SDS011;32073;49.166;8.076;2023-06-14T13:09:51;2.58;;;2.10;;
46365;SDS011;32073;49.166;8.076;2023-06-14T13:13:51;5.28;;;2.00;;
46365;SDS011;32073;49.166;8.076;2023-06-14T13:17:52;2.80;;;1.90;;
46365;SDS011;32073;49.166;8.076;2023-06-14T13:21:53;2.92;;;2.08;;
46365;SDS011;32073;49.166;8.076;2023-06-14T13:25:53;3.45;;;2.22;;
46365;SDS011;32073;49.166;8.076;2023-06-14T13:29:54;5.10;;;2.03;;
46365;SDS011;32073;49.166;8.076;2023-06-14T13:33:55;4.30;;;2.00;;
46365;SDS011;32073;49.166;8.076;2023-06-14T13:37:56;3.42;;;1.90;;
46365;SDS011;32073;49.166;8.076;2023-06-14T13:41:56;2.13;;;1.92;;
46365;SDS011;32073;49.166;8.076;2023-06-14T13:45:57;5.68;;;2.10;;
46365;SDS011;32073;49.166;8.076;2023-06-14T13:49:58;3.20;;;2.20;;
46365;SDS011;32073;49.166;8.076;2023-06-14T13:53:58;3.00;;;2.05;;
46365;SDS011;32073;49.166;8.076;2023-06-14T13:57:59;3.10;;;2.28;;
46365;SDS011;32073;49.166;8.076;2023-06-14T14:02:00;2.58;;;1.95;;
46365;SDS011;32073;49.166;8.076;2023-06-14T14:06:01;3.90;;;2.00;;
46365;SDS011;32073;49.166;8.076;2023-06-14T14:10:03;4.38;;;2.13;;
46365;SDS011;32073;49.166;8.076;2023-06-14T14:14:04;3.10;;;1.83;;
46365;SDS011;32073;49.166;8.076;2023-06-14T14:18:05;4.22;;;2.30;;
46365;SDS011;32073;49.166;8.076;2023-06-14T14:22:05;2.40;;;2.20;;
46365;SDS011;32073;49.166;8.076;2023-06-14T14:26:06;2.15;;;1.95;;
46365;SDS011;32073;49.166;8.076;2023-06-14T14:30:07;2.53;;;2.15;;
46365;SDS011;32073;49.166;8.076;2023-06-14T14:34:08;3.17;;;2.05;;
46365;SDS011;32073;49.166;8.076;2023-06-14T14:38:09;4.88;;;2.30;;
46365;SDS011;32073;49.166;8.076;2023-06-14T14:42:09;3.33;;;2.45;;
46365;SDS011;32073;49.166;8.076;2023-06-14T14:46:20;3.63;;;2.05;;
46365;SDS011;32073;49.166;8.076;2023-06-14T14:50:42;4.90;;;1.92;;
46365;SDS011;32073;49.166;8.076;2023-06-14T14:54:43;3.03;;;2.33;;
46365;SDS011;32073;49.166;8.076;2023-06-14T14:58:44;2.38;;;2.03;;
46365;SDS011;32073;49.166;8.076;2023-06-14T15:02:44;4.30;;;2.53;;
46365;SDS011;32073;49.166;8.076;2023-06-14T15:06:45;2.65;;;2.28;;
46365;SDS011;32073;49.166;8.076;2023-06-14T15:10:46;5.13;;;2.40;;
46365;SDS011;32073;49.166;8.076;2023-06-14T15:14:51;6.72;;;2.08;;
46365;SDS011;32073;49.166;8.076;2023-06-14T15:18:52;2.53;;;1.90;;
46365;SDS011;32073;49.166;8.076;2023-06-14T15:22:53;3.00;;;2.00;;
46365;SDS011;32073;49.166;8.076;2023-06-14T15:27:01;3.63;;;2.30;;
46365;SDS011;32073;49.166;8.076;2023-06-14T15:31:02;2.72;;;2.10;;
46365;SDS011;32073;49.166;8.076;2023-06-14T15:35:03;2.97;;;2.20;;
46365;SDS011;32073;49.166;8.076;2023-06-14T15:39:04;4.45;;;2.20;;
46365;SDS011;32073;49.166;8.076;2023-06-14T15:43:05;2.67;;;2.25;;
46365;SDS011;32073;49.166;8.076;2023-06-14T15:47:06;4.63;;;2.15;;
46365;SDS011;32073;49.166;8.076;2023-06-14T15:51:16;3.45;;;2.03;;
46365;SDS011;32073;49.166;8.076;2023-06-14T15:59:57;3.03;;;2.05;;
46365;SDS011;32073;49.166;8.076;2023-06-14T16:03:58;5.35;;;2.38;;
46365;SDS011;32073;49.166;8.076;2023-06-14T16:07:58;3.85;;;1.88;;
46365;SDS011;32073;49.166;8.076;2023-06-14T16:11:59;3.63;;;2.30;;
46365;SDS011;32073;49.166;8.076;2023-06-14T16:16:01;3.00;;;2.35;;
46365;SDS011;32073;49.166;8.076;2023-06-14T16:20:02;5.10;;;1.98;;
46365;SDS011;32073;49.166;8.076;2023-06-14T16:24:04;3.85;;;2.17;;
46365;SDS011;32073;49.166;8.076;2023-06-14T16:28:08;2.38;;;1.98;;
46365;SDS011;32073;49.166;8.076;2023-06-14T16:32:09;2.72;;;2.10;;
46365;SDS011;32073;49.166;8.076;2023-06-14T16:36:10;4.63;;;2.25;;
46365;SDS011;32073;49.166;8.076;2023-06-14T16:40:12;4.88;;;2.60;;
46365;SDS011;32073;49.166;8.076;2023-06-14T16:44:12;2.72;;;2.10;;
46365;SDS011;32073;49.166;8.076;2023-06-14T16:48:14;3.63;;;2.42;;
46365;SDS011;32073;49.166;8.076;2023-06-14T16:52:14;3.97;;;2.70;;
46365;SDS011;32073;49.166;8.076;2023-06-14T16:56:15;3.95;;;2.25;;
46365;SDS011;32073;49.166;8.076;2023-06-14T17:00:16;2.30;;;2.10;;
46365;SDS011;32073;49.166;8.076;2023-06-14T17:04:18;2.15;;;1.95;;
46365;SDS011;32073;49.166;8.076;2023-06-14T17:08:18;2.80;;;2.50;;
46365;SDS011;32073;49.166;8.076;2023-06-14T17:12:20;3.17;;;2.17;;
46365;SDS011;32073;49.166;8.076;2023-06-14T17:16:20;2.90;;;2.10;;
46365;SDS011;32073;49.166;8.076;2023-06-14T17:20:21;2.75;;;2.17;;
46365;SDS011;32073;49.166;8.076;2023-06-14T17:24:23;4.75;;;2.03;;
46365;SDS011;32073;49.166;8.076;2023-06-14T17:28:24;3.58;;;2.38;;
46365;SDS011;32073;49.166;8.076;2023-06-14T17:32:25;2.90;;;2.08;;
46365;SDS011;32073;49.166;8.076;2023-06-14T17:36:26;9.80;;;2.35;;
46365;SDS011;32073;49.166;8.076;2023-06-14T17:40:26;3.15;;;2.20;;
46365;SDS011;32073;49.166;8.076;2023-06-14T17:44:27;4.72;;;2.28;;
46365;SDS011;32073;49.166;8.076;2023-06-14T17:48:28;4.45;;;2.25;;
46365;SDS011;32073;49.166;8.076;2023-06-14T17:52:33;2.50;;;2.20;;
46365;SDS011;32073;49.166;8.076;2023-06-14T17:56:33;2.20;;;2.00;;
46365;SDS011;32073;49.166;8.076;2023-06-14T18:00:34;2.85;;;2.40;;
46365;SDS011;32073;49.166;8.076;2023-06-14T18:04:35;2.08;;;1.85;;
46365;SDS011;32073;49.166;8.076;2023-06-14T18:08:35;2.30;;;2.10;;
46365;SDS011;32073;49.166;8.076;2023-06-14T18:12:36;4.03;;;2.20;;
46365;SDS011;32073;49.166;8.076;2023-06-14T18:16:37;2.33;;;2.00;;
46365;SDS011;32073;49.166;8.076;2023-06-14T18:20:40;2.95;;;2.00;;
46365;SDS011;32073;49.166;8.076;2023-06-14T18:24:41;3.15;;;2.15;;
46365;SDS011;32073;49.166;8.076;2023-06-14T18:28:41;3.53;;;2.20;;
46365;SDS011;32073;49.166;8.076;2023-06-14T18:32:42;5.05;;;2.47;;
46365;SDS011;32073;49.166;8.076;2023-06-14T18:36:46;2.40;;;2.10;;
46365;SDS011;32073;49.166;8.076;2023-06-14T18:40:47;2.85;;;2.00;;
46365;SDS011;32073;49.166;8.076;2023-06-14T18:44:51;3.83;;;2.17;;
46365;SDS011;32073;49.166;8.076;2023-06-14T18:48:52;2.83;;;1.95;;
46365;SDS011;32073;49.166;8.076;2023-06-14T18:52:53;3.53;;;1.90;;
46365;SDS011;32073;49.166;8.076;2023-06-14T18:56:53;2.35;;;1.90;;
46365;SDS011;32073;49.166;8.076;2023-06-14T19:00:54;2.38;;;1.90;;
46365;SDS011;32073;49.166;8.076;2023-06-14T19:04:55;4.63;;;1.70;;
46365;SDS011;32073;49.166;8.076;2023-06-14T19:08:55;2.47;;;1.95;;
46365;SDS011;32073;49.166;8.076;2023-06-14T19:12:56;2.15;;;1.95;;
46365;SDS011;32073;49.166;8.076;2023-06-14T19:16:56;2.15;;;1.88;;
46365;SDS011;32073;49.166;8.076;2023-06-14T19:20:57;2.17;;;1.98;;
46365;SDS011;32073;49.166;8.076;2023-06-14T19:24:58;2.55;;;2.03;;
46365;SDS011;32073;49.166;8.076;2023-06-14T19:28:58;2.58;;;1.95;;
46365;SDS011;32073;49.166;8.076;2023-06-14T19:32:59;3.65;;;2.25;;
46365;SDS011;32073;49.166;8.076;2023-06-14T19:37:00;3.15;;;2.10;;
46365;SDS011;32073;49.166;8.076;2023-06-14T19:41:01;3.65;;;1.90;;
46365;SDS011;32073;49.166;8.076;2023-06-14T19:45:02;3.33;;;1.83;;
46365;SDS011;32073;49.166;8.076;2023-06-14T19:49:03;2.60;;;2.05;;
46365;SDS011;32073;49.166;8.076;2023-06-14T19:53:04;3.35;;;2.08;;
46365;SDS011;32073;49.166;8.076;2023-06-14T19:57:05;3.53;;;1.98;;
46365;SDS011;32073;49.166;8.076;2023-06-14T20:01:06;2.63;;;1.80;;
46365;SDS011;32073;49.166;8.076;2023-06-14T20:05:07;2.15;;;1.95;;
46365;SDS011;32073;49.166;8.076;2023-06-14T20:09:08;3.25;;;1.88;;
46365;SDS011;32073;49.166;8.076;2023-06-14T20:13:13;2.13;;;1.77;;
46365;SDS011;32073;49.166;8.076;2023-06-14T20:17:14;6.55;;;1.77;;
46365;SDS011;32073;49.166;8.076;2023-06-14T20:21:15;4.53;;;2.53;;
46365;SDS011;32073;49.166;8.076;2023-06-14T20:25:15;2.60;;;1.98;;
46365;SDS011;32073;49.166;8.076;2023-06-14T20:29:17;3.35;;;2.08;;
46365;SDS011;32073;49.166;8.076;2023-06-14T20:33:18;3.03;;;1.73;;
46365;SDS011;32073;49.166;8.076;2023-06-14T20:37:19;3.67;;;2.20;;
46365;SDS011;32073;49.166;8.076;2023-06-14T20:41:20;2.47;;;2.10;;
46365;SDS011;32073;49.166;8.076;2023-06-14T20:45:20;2.50;;;1.85;;
46365;SDS011;32073;49.166;8.076;2023-06-14T20:49:21;3.42;;;1.88;;
46365;SDS011;32073;49.166;8.076;2023-06-14T20:53:22;3.50;;;1.80;;
46365;SDS011;32073;49.166;8.076;2023-06-14T20:57:22;5.55;;;1.95;;
46365;SDS011;32073;49.166;8.076;2023-06-14T21:01:23;3.47;;;1.73;;
46365;SDS011;32073;49.166;8.076;2023-06-14T21:05:34;3.70;;;1.90;;
46365;SDS011;32073;49.166;8.076;2023-06-14T21:09:35;3.25;;;1.50;;
46365;SDS011;32073;49.166;8.076;2023-06-14T21:13:36;2.15;;;1.60;;
46365;SDS011;32073;49.166;8.076;2023-06-14T21:17:36;3.78;;;1.77;;
46365;SDS011;32073;49.166;8.076;2023-06-14T21:21:37;3.03;;;1.70;;
46365;SDS011;32073;49.166;8.076;2023-06-14T21:25:38;2.75;;;1.50;;
46365;SDS011;32073;49.166;8.076;2023-06-14T21:29:39;1.55;;;1.42;;
46365;SDS011;32073;49.166;8.076;2023-06-14T21:33:39;2.72;;;1.40;;
46365;SDS011;32073;49.166;8.076;2023-06-14T21:37:40;3.40;;;1.67;;
46365;SDS011;32073;49.166;8.076;2023-06-14T21:41:41;2.25;;;1.60;;
46365;SDS011;32073;49.166;8.076;2023-06-14T21:45:41;2.83;;;1.52;;
46365;SDS011;32073;49.166;8.076;2023-06-14T21:49:43;1.60;;;1.20;;
46365;SDS011;32073;49.166;8.076;2023-06-14T21:53:44;2.67;;;1.60;;
46365;SDS011;32073;49.166;8.076;2023-06-14T21:57:49;1.63;;;1.40;;
46365;SDS011;32073;49.166;8.076;2023-06-14T22:01:50;1.58;;;1.27;;
46365;SDS011;32073;49.166;8.076;2023-06-14T22:05:50;2.00;;;1.80;;
46365;SDS011;32073;49.166;8.076;2023-06-14T22:09:51;1.73;;;1.63;;
46365;SDS011;32073;49.166;8.076;2023-06-14T22:13:52;2.22;;;1.70;;
46365;SDS011;32073;49.166;8.076;2023-06-14T22:17:52;2.45;;;1.50;;
46365;SDS011;32073;49.166;8.076;2023-06-14T22:21:55;2.80;;;1.77;;
46365;SDS011;32073;49.166;8.076;2023-06-14T22:25:57;3.67;;;1.83;;
46365;SDS011;32073;49.166;8.076;2023-06-14T22:29:58;2.00;;;1.80;;
46365;SDS011;32073;49.166;8.076;2023-06-14T22:33:59;2.25;;;1.80;;
46365;SDS011;32073;49.166;8.076;2023-06-14T22:38:00;3.22;;;1.42;;
46365;SDS011;32073;49.166;8.076;2023-06-14T22:42:03;1.80;;;1.67;;
46365;SDS011;32073;49.166;8.076;2023-06-14T22:46:06;2.45;;;1.85;;
46365;SDS011;32073;49.166;8.076;2023-06-14T22:50:19;3.28;;;1.60;;
46365;SDS011;32073;49.166;8.076;2023-06-14T22:54:20;3.42;;;1.90;;
46365;SDS011;32073;49.166;8.076;2023-06-14T22:58:20;2.22;;;1.42;;
46365;SDS011;32073;49.166;8.076;2023-06-14T23:02:24;3.42;;;1.77;;
46365;SDS011;32073;49.166;8.076;2023-06-14T23:06:25;2.47;;;1.77;;
46365;SDS011;32073;49.166;8.076;2023-06-14T23:10:26;2.55;;;1.80;;
46365;SDS011;32073;49.166;8.076;2023-06-14T23:14:27;3.22;;;1.85;;
46365;SDS011;32073;49.166;8.076;2023-06-14T23:18:28;5.82;;;1.92;;
46365;SDS011;32073;49.166;8.076;2023-06-14T23:22:29;2.65;;;1.70;;
46365;SDS011;32073;49.166;8.076;2023-06-14T23:26:35;1.42;;;1.33;;
46365;SDS011;32073;49.166;8.076;2023-06-14T23:30:36;2.10;;;1.90;;
46365;SDS011;32073;49.166;8.076;2023-06-14T23:34:37;3.38;;;2.03;;
46365;SDS011;32073;49.166;8.076;2023-06-14T23:38:37;3.00;;;1.67;;
46365;SDS011;32073;49.166;8.076;2023-06-14T23:42:42;1.75;;;1.63;;
46365;SDS011;32073;49.166;8.076;2023-06-14T23:46:43;3.35;;;1.80;;
46365;SDS011;32073;49.166;8.076;2023-06-14T23:50:44;2.08;;;1.50;;
46365;SDS011;32073;49.166;8.076;2023-06-14T23:54:44;2.40;;;1.90;;
46365;SDS011;32073;49.166;8.076;2023-06-14T23:58:46;2.60;;;1.83;;
